AirNav   Everest Fuels
 
 1099 users online  

0G7 Finger Lakes Regional Airport
Seneca Falls, New York, USA

GOING TO SENECA FALLS?


FAA INFORMATION EFFECTIVE 22 APRIL 2021

Location

FAA Identifier: 0G7
Lat/Long: 42-53-00.8000N 076-46-52.2000W
42-53.013333N 076-46.870000W
42.8835556,-76.7811667
(estimated)
Elevation: 491.8 ft. / 149.9 m (surveyed)
Variation: 12W (1985)
From city: 2 miles SE of SENECA FALLS, NY
Time zone: UTC -4 (UTC -5 during Standard Time)
Zip code: 13148

Airport Operations

Airport use: Open to the public
Activation date: 06/1943
Control tower: no
ARTCC: BOSTON CENTER
FSS: BUFFALO FLIGHT SERVICE STATION
NOTAMs facility: BUF (NOTAM-D service available)
Attendance: MON-FRI 0800-1600, ALL SAT-SUN 0800-1500
Wind indicator: lighted
Segmented circle: yes
Lights: ACTVT REIL RWY 01 & 19; MIRL RWY 01/19 - CTAF.
Beacon: white-green (lighted land airport)
Operates sunset to sunrise.
Landing fee: yes, LANDING FEE FOR JETS AND TURBO PROPS.

Airport Communications

CTAF/UNICOM: 122.8
WX AWOS-3: 120.0 (315-568-5362)
ELMIRA APPROACH: 124.3 ;SW-SE 119.55 ;W-NW 126.125
ELMIRA DEPARTURE: 126.125
IC: 124.3 ;SW-SE 119.55 ;W-NW
WX AWOS-3P at 6B9 (15 nm E): 120.125 (315-685-5790)
WX ASOS at PEO (19 nm SW): 121.175 (315-536-4102)
  • APCH SVC PRVDD BY NEW YORK ARTCC ON FREQS 133.35/372.0 (SAYRE RCAG) WHEN ELMIRA APCH CTL CLSD.

Nearby radio navigation aids

VOR radial/distance  VOR name  Freq  Var
SYRr248/30.3SYRACUSE VORTAC117.0011W

 
NDB name  Hdg/Dist  Freq  Var  ID
PENN YAN052/18.826012WPYA .--. -.-- .-
ALPINE011/38.724512WALP .- .-.. .--.

Airport Services

Fuel available: 100LL JET-A
Parking: hangars and tiedowns
Airframe service: MAJOR
Powerplant service: MAJOR
Bottled oxygen: NONE
Bulk oxygen: NONE

Runway Information

Runway 1/19

Dimensions: 4592 x 75 ft. / 1400 x 23 m
Surface: asphalt, in good condition
Weight bearing capacity: 
Single wheel: 12.5
Double wheel: 30.0
Runway edge lights: medium intensity
RUNWAY 1  RUNWAY 19
Latitude: 42-52.611355N42-53.364773N
Longitude: 076-46.888417W076-46.970995W
Elevation: 490.7 ft.481.6 ft.
Traffic pattern: leftleft
Runway heading: 007 magnetic, 355 true187 magnetic, 175 true
Displaced threshold: 392 ft.no
Declared distances: TORA:4592 TODA:4592 ASDA:4592 LDA:4199TORA:4592 TODA:4592 ASDA:4592 LDA:4292
Markings: nonprecision, in good conditionbasic, in good condition
Visual slope indicator: 2-light PAPI on left (3.00 degrees glide path)2-light PAPI on left (3.00 degrees glide path)
Runway end identifier lights: yesyes
Touchdown point: yes, no lightsyes, no lights
Obstructions: 46 ft. trees, 293 ft. from runway, 263 ft. left of centerline, 2:1 slope to clear
RWY 01 HAS 15 FT ROAD 90 FT FM RWY PERPENDICULAR TO RWY; 2 FT BERM, PARL TO RWY, 99 FT RIGHT.
15 ft. road, 503 ft. from runway, 231 ft. left and right of centerline, 20:1 slope to clear

Runway 11/29

Dimensions: 1850 x 60 ft. / 564 x 18 m
Surface: turf, in good condition
RUNWAY 11  RUNWAY 29
Latitude: 42-53.092798N42-53.059662N
Longitude: 076-46.927987W076-46.516285W
Elevation: 488.9 ft.465.7 ft.
Traffic pattern: leftleft
Runway heading: 108 magnetic, 096 true288 magnetic, 276 true
Runway end identifier lights: nono
Touchdown point: yes, no lightsyes, no lights
Obstructions: 45 ft. trees, 456 ft. from runway, 88 ft. left of centerline, 10:1 slope to clear
RWY 29 HAS 17 FT ROAD 30 FT FM RWY THLD, PERPENDICULAR TO RWY.
53 ft. trees, 74 ft. from runway, 82 ft. right of centerline, 1:1 slope to clear

Airport Ownership and Management from official FAA records

Ownership: Publicly-owned
Owner: SENECA COUNTY
1 DEPRONIO DR
WATERLOO, NY 13165
Phone 315-539-5655
Manager: DAVID HAIMES
2727 MARTIN RD
SENECA FALLS, NY 13148
Phone 315-568-0110

Airport Operational Statistics

Aircraft based on the field: 23
Single engine airplanes: 20
Multi engine airplanes: 2
Helicopters: 1
    
Aircraft operations: avg 35/day *
77% local general aviation
22% transient general aviation
<1% military
* for 12-month period ending 29 August 2018

Additional Remarks

MEDIVAC HEL FLT SERVICE ON ARPT; MONITOR CTAF FOR OPS.
FOR CD CTC SYRACUSE APCH AT 315-455-6218.

Instrument Procedures

NOTE: All procedures below are presented as PDF files. If you need a reader for these files, you should download the free Adobe Reader.

NOT FOR NAVIGATION. Please procure official charts for flight.
FAA instrument procedures published for use from 22 April 2021 at 0901Z to 20 May 2021 at 0900z.

 
IAPs - Instrument Approach Procedures
RNAV (GPS) RWY 01   download (277KB)
RNAV (GPS) RWY 19   download (254KB)
NOTE: Special Take-Off Minimums/Departure Procedures apply   download

Other nearby airports with instrument procedures:

6B9 - Skaneateles Aero Drome (15 nm E)
B16 - Whitfords Airport (16 nm NE)
KPEO - Penn Yan Airport (19 nm SW)
KIUA - Canandaigua Airport (24 nm W)
KSDC - Williamson-Sodus Airport (26 nm NW)
 
Loc | Ops | Rwys | IFR | FBO | Links
Com | Nav | Svcs | Stats | Notes
Area around 0G7 (Finger Lakes Regional Airport)
 
Road maps at: MapQuest Bing Google
 
Aerial photo
WARNING: Photo may not be current or correct
Aerial photo of 0G7 (Finger Lakes Regional Airport)
Do you have a better or more recent aerial photo of Finger Lakes Regional Airport that you would like to share? If so, please send us your photo.

 
Sectional chart

 
Airport distance calculator
Flying to Finger Lakes Regional Airport? Find the distance to fly.

From to 0G7

Sunrise and sunset
Times for 15-May-2021
 Local
(UTC-4)
 Zulu
(UTC)
Morning civil twilight05:1309:13
Sunrise05:4509:45
Sunset20:2200:22
Evening civil twilight20:5400:54

Current date and time
Zulu (UTC)  15-May-2021 15:27:55
Local (UTC-4)  15-May-2021 11:27:55
 
METAR
K6B9 
15nm E 
151515Z AUTO VRB06KT 10SM CLR 18/01 A3027 RMK AO2
KPEO 
18nm SW 
151453Z AUTO 31004KT 10SM CLR 20/02 A3027 RMK AO2 SLP249 T02000017 58002
KIUA 
24nm W 
151515Z AUTO 30006KT 10SM CLR 20/02 A3026 RMK AO2 T02000022
KSDC 
26nm NW 
151515Z AUTO 34005KT 10SM CLR 19/00 A3027 RMK AO2
KITH 
29nm SE 
151456Z 00000KT 10SM CLR 19/01 A3027 RMK AO2 SLP251 6//// T01890006 58002 PNO $
TAF
KITH 
29nm SE 
151120Z 1512/1612 VRB04KT P6SM SCT100 FM151500 27005KT P6SM SCT080 FM151800 30006KT P6SM BKN070 FM160000 09003KT P6SM BKN070
KSYR 
33nm NE 
151120Z 1512/1612 VRB03KT P6SM SCT100 FM151400 27005KT P6SM SCT080 FM152000 29008KT P6SM BKN080 FM160100 VRB03KT P6SM BKN080
NOTAMs
Click for the latest NOTAMs
NOTAMs are issued by the DoD/FAA and will open in a separate window not controlled by AirNav.

 

 
 

FBO, Fuel Providers, and Aircraft Ground Support

  
 Business Name 
 
 Contact 
 
 Services / Description 
 
Fuel Prices
 
Comments
  
Finger Lakes Regional Airport 315-568-0110
[email]
Airport management, Aviation fuel, Aircraft parking (ramp or tiedown), Hangars, Passenger terminal and lounge, Flight training, Aircraft maintenance, Pilot supplies, ...
 
Enterprise Rent-A-Car  
 
More info about Finger Lakes Regional Airport
Avfuel
100LL Jet A
FS --- $4.50 
SS $4.65 $4.50 
 Updated 14-Apr-2021
 
   1 read write
FS=Full service
SS=Self service
Update Fuel Prices
 

Would you like to see your business listed on this page?

 If your business provides an interesting product or service to pilots, flight crews, aircraft, or users of the Finger Lakes Regional Airport, you should consider listing it here.  To start the listing process, click on the button below
 
Add a business
 

Other Pages about Finger Lakes Regional Airport

Update a link
 
Copyright © AirNav, LLC. All rights reserved. Privacy Policy  Contact